sensor_id;sensor_type;location;lat;lon;timestamp;P1;durP1;ratioP1;P2;durP2;ratioP2
92;SDS011;16232;48.800;9.002;2023-05-10T00:00:04;1.20;;;0.40;;
92;SDS011;16232;48.800;9.002;2023-05-10T00:02:32;0.63;;;0.27;;
92;SDS011;16232;48.800;9.002;2023-05-10T00:05:00;0.40;;;0.40;;
92;SDS011;16232;48.800;9.002;2023-05-10T00:07:27;1.57;;;0.30;;
92;SDS011;16232;48.800;9.002;2023-05-10T00:09:56;0.33;;;0.27;;
92;SDS011;16232;48.800;9.002;2023-05-10T00:12:27;3.63;;;0.30;;
92;SDS011;16232;48.800;9.002;2023-05-10T00:14:57;1.60;;;0.10;;
92;SDS011;16232;48.800;9.002;2023-05-10T00:17:25;0.83;;;0.20;;
92;SDS011;16232;48.800;9.002;2023-05-10T00:19:53;1.57;;;0.20;;
92;SDS011;16232;48.800;9.002;2023-05-10T00:22:20;2.37;;;0.30;;
92;SDS011;16232;48.800;9.002;2023-05-10T00:24:48;1.13;;;0.20;;
92;SDS011;16232;48.800;9.002;2023-05-10T00:27:17;0.93;;;0.50;;
92;SDS011;16232;48.800;9.002;2023-05-10T00:29:44;0.20;;;0.17;;
92;SDS011;16232;48.800;9.002;2023-05-10T00:32:11;0.83;;;0.30;;
92;SDS011;16232;48.800;9.002;2023-05-10T00:34:39;2.00;;;0.40;;
92;SDS011;16232;48.800;9.002;2023-05-10T00:37:06;1.10;;;0.30;;
92;SDS011;16232;48.800;9.002;2023-05-10T00:39:34;0.87;;;0.30;;
92;SDS011;16232;48.800;9.002;2023-05-10T00:42:01;0.50;;;0.30;;
92;SDS011;16232;48.800;9.002;2023-05-10T00:44:31;0.30;;;0.30;;
92;SDS011;16232;48.800;9.002;2023-05-10T00:46:58;0.20;;;0.10;;
92;SDS011;16232;48.800;9.002;2023-05-10T00:49:26;0.93;;;0.30;;
92;SDS011;16232;48.800;9.002;2023-05-10T00:51:53;0.90;;;0.30;;
92;SDS011;16232;48.800;9.002;2023-05-10T00:54:24;2.50;;;0.20;;
92;SDS011;16232;48.800;9.002;2023-05-10T00:56:52;0.23;;;0.23;;
92;SDS011;16232;48.800;9.002;2023-05-10T00:59:31;0.97;;;0.30;;
92;SDS011;16232;48.800;9.002;2023-05-10T01:01:59;0.50;;;0.30;;
92;SDS011;16232;48.800;9.002;2023-05-10T01:04:26;1.13;;;0.50;;
92;SDS011;16232;48.800;9.002;2023-05-10T01:06:55;0.40;;;0.40;;
92;SDS011;16232;48.800;9.002;2023-05-10T01:09:23;1.40;;;0.50;;
92;SDS011;16232;48.800;9.002;2023-05-10T01:11:53;1.23;;;0.63;;
92;SDS011;16232;48.800;9.002;2023-05-10T01:14:21;1.37;;;0.50;;
92;SDS011;16232;48.800;9.002;2023-05-10T01:16:50;1.40;;;0.60;;
92;SDS011;16232;48.800;9.002;2023-05-10T01:19:22;0.63;;;0.63;;
92;SDS011;16232;48.800;9.002;2023-05-10T01:21:53;1.73;;;0.63;;
92;SDS011;16232;48.800;9.002;2023-05-10T01:24:28;0.50;;;0.50;;
92;SDS011;16232;48.800;9.002;2023-05-10T01:32:31;1.00;;;1.00;;
92;SDS011;16232;48.800;9.002;2023-05-10T01:35:00;1.03;;;0.73;;
92;SDS011;16232;48.800;9.002;2023-05-10T01:37:41;1.40;;;0.73;;
92;SDS011;16232;48.800;9.002;2023-05-10T01:40:13;5.30;;;0.90;;
92;SDS011;16232;48.800;9.002;2023-05-10T01:42:45;1.20;;;1.10;;
92;SDS011;16232;48.800;9.002;2023-05-10T01:45:14;1.10;;;1.03;;
92;SDS011;16232;48.800;9.002;2023-05-10T01:47:48;1.30;;;1.10;;
92;SDS011;16232;48.800;9.002;2023-05-10T01:50:18;1.03;;;0.90;;
92;SDS011;16232;48.800;9.002;2023-05-10T01:52:50;0.70;;;0.70;;
92;SDS011;16232;48.800;9.002;2023-05-10T01:55:18;1.20;;;1.10;;
92;SDS011;16232;48.800;9.002;2023-05-10T01:57:48;0.90;;;0.90;;
92;SDS011;16232;48.800;9.002;2023-05-10T02:00:18;0.93;;;0.83;;
92;SDS011;16232;48.800;9.002;2023-05-10T02:02:48;0.77;;;0.77;;
92;SDS011;16232;48.800;9.002;2023-05-10T02:05:16;3.43;;;0.97;;
92;SDS011;16232;48.800;9.002;2023-05-10T02:07:44;0.90;;;0.90;;
92;SDS011;16232;48.800;9.002;2023-05-10T02:10:12;2.30;;;0.73;;
92;SDS011;16232;48.800;9.002;2023-05-10T02:12:46;0.90;;;0.70;;
92;SDS011;16232;48.800;9.002;2023-05-10T02:15:15;1.03;;;1.00;;
92;SDS011;16232;48.800;9.002;2023-05-10T02:17:43;0.90;;;0.60;;
92;SDS011;16232;48.800;9.002;2023-05-10T02:20:12;4.53;;;0.87;;
92;SDS011;16232;48.800;9.002;2023-05-10T02:22:40;1.20;;;0.80;;
92;SDS011;16232;48.800;9.002;2023-05-10T02:25:08;0.70;;;0.70;;
92;SDS011;16232;48.800;9.002;2023-05-10T02:27:37;1.20;;;1.10;;
92;SDS011;16232;48.800;9.002;2023-05-10T02:30:06;0.90;;;0.90;;
92;SDS011;16232;48.800;9.002;2023-05-10T02:32:34;0.80;;;0.80;;
92;SDS011;16232;48.800;9.002;2023-05-10T02:35:02;0.80;;;0.80;;
92;SDS011;16232;48.800;9.002;2023-05-10T02:37:31;0.60;;;0.60;;
92;SDS011;16232;48.800;9.002;2023-05-10T02:40:00;2.10;;;0.90;;
92;SDS011;16232;48.800;9.002;2023-05-10T02:42:47;1.00;;;1.00;;
92;SDS011;16232;48.800;9.002;2023-05-10T02:45:34;1.90;;;1.23;;
92;SDS011;16232;48.800;9.002;2023-05-10T02:48:24;2.13;;;1.93;;
92;SDS011;16232;48.800;9.002;2023-05-10T02:51:10;1.43;;;1.33;;
92;SDS011;16232;48.800;9.002;2023-05-10T02:53:59;1.20;;;1.10;;
92;SDS011;16232;48.800;9.002;2023-05-10T02:56:50;2.43;;;1.40;;
92;SDS011;16232;48.800;9.002;2023-05-10T02:59:36;1.27;;;1.10;;
92;SDS011;16232;48.800;9.002;2023-05-10T03:02:22;1.10;;;1.10;;
92;SDS011;16232;48.800;9.002;2023-05-10T03:05:08;3.87;;;1.93;;
92;SDS011;16232;48.800;9.002;2023-05-10T03:07:54;1.43;;;1.13;;
92;SDS011;16232;48.800;9.002;2023-05-10T03:10:44;10.30;;;2.50;;
92;SDS011;16232;48.800;9.002;2023-05-10T03:13:35;2.10;;;2.00;;
92;SDS011;16232;48.800;9.002;2023-05-10T03:16:27;2.20;;;2.07;;
92;SDS011;16232;48.800;9.002;2023-05-10T03:19:16;2.97;;;2.67;;
92;SDS011;16232;48.800;9.002;2023-05-10T03:22:04;2.77;;;1.63;;
92;SDS011;16232;48.800;9.002;2023-05-10T03:24:55;2.60;;;2.40;;
92;SDS011;16232;48.800;9.002;2023-05-10T03:27:43;2.63;;;1.97;;
92;SDS011;16232;48.800;9.002;2023-05-10T03:30:15;3.07;;;2.77;;
92;SDS011;16232;48.800;9.002;2023-05-10T03:32:43;4.30;;;2.83;;
92;SDS011;16232;48.800;9.002;2023-05-10T03:35:11;2.83;;;2.63;;
92;SDS011;16232;48.800;9.002;2023-05-10T03:37:39;2.90;;;2.70;;
92;SDS011;16232;48.800;9.002;2023-05-10T03:40:07;2.57;;;2.17;;
92;SDS011;16232;48.800;9.002;2023-05-10T03:42:34;3.30;;;2.30;;
92;SDS011;16232;48.800;9.002;2023-05-10T03:45:03;3.93;;;2.43;;
92;SDS011;16232;48.800;9.002;2023-05-10T03:47:31;2.70;;;2.50;;
92;SDS011;16232;48.800;9.002;2023-05-10T03:49:58;2.57;;;2.37;;
92;SDS011;16232;48.800;9.002;2023-05-10T03:52:27;2.80;;;2.60;;
92;SDS011;16232;48.800;9.002;2023-05-10T03:54:55;2.57;;;1.93;;
92;SDS011;16232;48.800;9.002;2023-05-10T03:57:22;2.77;;;1.90;;
92;SDS011;16232;48.800;9.002;2023-05-10T03:59:49;2.50;;;1.63;;
92;SDS011;16232;48.800;9.002;2023-05-10T04:02:18;2.10;;;2.00;;
92;SDS011;16232;48.800;9.002;2023-05-10T04:04:46;2.50;;;1.77;;
92;SDS011;16232;48.800;9.002;2023-05-10T04:07:13;2.43;;;2.23;;
92;SDS011;16232;48.800;9.002;2023-05-10T04:09:41;2.50;;;1.90;;
92;SDS011;16232;48.800;9.002;2023-05-10T04:12:08;7.00;;;2.70;;
92;SDS011;16232;48.800;9.002;2023-05-10T04:14:36;3.27;;;2.13;;
92;SDS011;16232;48.800;9.002;2023-05-10T04:17:03;2.53;;;2.27;;
92;SDS011;16232;48.800;9.002;2023-05-10T04:19:32;2.90;;;2.20;;
92;SDS011;16232;48.800;9.002;2023-05-10T04:22:00;3.13;;;2.83;;
92;SDS011;16232;48.800;9.002;2023-05-10T04:24:29;3.90;;;2.70;;
92;SDS011;16232;48.800;9.002;2023-05-10T04:26:56;2.53;;;2.33;;
92;SDS011;16232;48.800;9.002;2023-05-10T04:29:24;2.37;;;2.17;;
92;SDS011;16232;48.800;9.002;2023-05-10T04:31:51;2.23;;;2.03;;
92;SDS011;16232;48.800;9.002;2023-05-10T04:34:20;1.83;;;1.73;;
92;SDS011;16232;48.800;9.002;2023-05-10T04:36:49;1.97;;;1.87;;
92;SDS011;16232;48.800;9.002;2023-05-10T04:39:16;3.63;;;2.53;;
92;SDS011;16232;48.800;9.002;2023-05-10T04:41:44;2.90;;;2.20;;
92;SDS011;16232;48.800;9.002;2023-05-10T04:44:11;2.73;;;1.93;;
92;SDS011;16232;48.800;9.002;2023-05-10T04:46:38;4.07;;;2.30;;
92;SDS011;16232;48.800;9.002;2023-05-10T04:49:06;2.10;;;2.00;;
92;SDS011;16232;48.800;9.002;2023-05-10T04:51:33;3.27;;;1.93;;
92;SDS011;16232;48.800;9.002;2023-05-10T04:54:02;2.33;;;2.10;;
92;SDS011;16232;48.800;9.002;2023-05-10T04:56:30;1.83;;;1.73;;
92;SDS011;16232;48.800;9.002;2023-05-10T04:58:57;2.77;;;1.97;;
92;SDS011;16232;48.800;9.002;2023-05-10T05:01:24;3.30;;;2.13;;
92;SDS011;16232;48.800;9.002;2023-05-10T05:03:52;2.00;;;1.80;;
92;SDS011;16232;48.800;9.002;2023-05-10T05:06:19;2.57;;;2.10;;
92;SDS011;16232;48.800;9.002;2023-05-10T05:08:47;2.40;;;2.00;;
92;SDS011;16232;48.800;9.002;2023-05-10T05:11:16;2.33;;;2.13;;
92;SDS011;16232;48.800;9.002;2023-05-10T05:13:44;4.20;;;2.00;;
92;SDS011;16232;48.800;9.002;2023-05-10T05:16:12;3.50;;;2.43;;
92;SDS011;16232;48.800;9.002;2023-05-10T05:18:39;3.93;;;2.57;;
92;SDS011;16232;48.800;9.002;2023-05-10T05:21:13;3.20;;;2.17;;
92;SDS011;16232;48.800;9.002;2023-05-10T05:23:41;3.07;;;2.70;;
92;SDS011;16232;48.800;9.002;2023-05-10T05:26:08;2.63;;;2.43;;
92;SDS011;16232;48.800;9.002;2023-05-10T05:28:37;4.40;;;2.00;;
92;SDS011;16232;48.800;9.002;2023-05-10T05:31:05;3.23;;;2.20;;
92;SDS011;16232;48.800;9.002;2023-05-10T05:33:32;2.53;;;2.00;;
92;SDS011;16232;48.800;9.002;2023-05-10T05:36:00;2.13;;;1.93;;
92;SDS011;16232;48.800;9.002;2023-05-10T05:38:28;2.13;;;1.73;;
92;SDS011;16232;48.800;9.002;2023-05-10T05:40:55;2.90;;;1.43;;
92;SDS011;16232;48.800;9.002;2023-05-10T05:43:24;2.83;;;2.13;;
92;SDS011;16232;48.800;9.002;2023-05-10T05:45:53;4.43;;;2.17;;
92;SDS011;16232;48.800;9.002;2023-05-10T05:48:21;2.87;;;2.67;;
92;SDS011;16232;48.800;9.002;2023-05-10T05:50:48;3.00;;;2.00;;
92;SDS011;16232;48.800;9.002;2023-05-10T05:53:16;3.70;;;2.30;;
92;SDS011;16232;48.800;9.002;2023-05-10T05:55:50;11.40;;;2.53;;
92;SDS011;16232;48.800;9.002;2023-05-10T05:58:18;5.17;;;2.07;;
92;SDS011;16232;48.800;9.002;2023-05-10T06:00:46;5.53;;;2.30;;
92;SDS011;16232;48.800;9.002;2023-05-10T06:03:15;5.33;;;2.07;;
92;SDS011;16232;48.800;9.002;2023-05-10T06:05:42;2.37;;;2.17;;
92;SDS011;16232;48.800;9.002;2023-05-10T06:08:09;1.77;;;1.67;;
92;SDS011;16232;48.800;9.002;2023-05-10T06:10:37;3.77;;;1.93;;
92;SDS011;16232;48.800;9.002;2023-05-10T06:13:04;5.17;;;2.00;;
92;SDS011;16232;48.800;9.002;2023-05-10T06:15:32;3.20;;;2.13;;
92;SDS011;16232;48.800;9.002;2023-05-10T06:17:59;3.83;;;1.90;;
92;SDS011;16232;48.800;9.002;2023-05-10T06:20:28;5.10;;;2.33;;
92;SDS011;16232;48.800;9.002;2023-05-10T06:22:57;3.17;;;2.00;;
92;SDS011;16232;48.800;9.002;2023-05-10T06:25:24;3.13;;;1.43;;
92;SDS011;16232;48.800;9.002;2023-05-10T06:27:52;5.07;;;2.10;;
92;SDS011;16232;48.800;9.002;2023-05-10T06:30:22;3.03;;;1.83;;
92;SDS011;16232;48.800;9.002;2023-05-10T06:32:52;4.07;;;2.00;;
92;SDS011;16232;48.800;9.002;2023-05-10T06:35:20;2.07;;;1.97;;
92;SDS011;16232;48.800;9.002;2023-05-10T06:37:49;3.83;;;2.03;;
92;SDS011;16232;48.800;9.002;2023-05-10T06:40:17;2.13;;;2.00;;
92;SDS011;16232;48.800;9.002;2023-05-10T06:42:45;3.97;;;2.20;;
92;SDS011;16232;48.800;9.002;2023-05-10T06:45:13;2.07;;;1.87;;
92;SDS011;16232;48.800;9.002;2023-05-10T06:47:40;2.43;;;1.67;;
92;SDS011;16232;48.800;9.002;2023-05-10T06:50:08;2.70;;;1.80;;
92;SDS011;16232;48.800;9.002;2023-05-10T06:52:36;2.80;;;1.50;;
92;SDS011;16232;48.800;9.002;2023-05-10T06:55:06;3.63;;;1.57;;
92;SDS011;16232;48.800;9.002;2023-05-10T06:57:35;2.20;;;1.53;;
92;SDS011;16232;48.800;9.002;2023-05-10T07:00:02;1.93;;;1.40;;
92;SDS011;16232;48.800;9.002;2023-05-10T07:02:30;2.33;;;1.23;;
92;SDS011;16232;48.800;9.002;2023-05-10T07:04:58;1.47;;;1.37;;
92;SDS011;16232;48.800;9.002;2023-05-10T07:07:25;4.00;;;1.47;;
92;SDS011;16232;48.800;9.002;2023-05-10T07:09:53;1.83;;;1.30;;
92;SDS011;16232;48.800;9.002;2023-05-10T07:12:23;1.70;;;1.60;;
92;SDS011;16232;48.800;9.002;2023-05-10T07:14:51;2.10;;;1.90;;
92;SDS011;16232;48.800;9.002;2023-05-10T07:17:23;2.90;;;1.80;;
92;SDS011;16232;48.800;9.002;2023-05-10T07:19:50;5.80;;;1.87;;
92;SDS011;16232;48.800;9.002;2023-05-10T07:22:18;2.07;;;1.37;;
92;SDS011;16232;48.800;9.002;2023-05-10T07:24:45;1.73;;;1.60;;
92;SDS011;16232;48.800;9.002;2023-05-10T07:27:12;2.23;;;1.60;;
92;SDS011;16232;48.800;9.002;2023-05-10T07:29:41;2.23;;;1.40;;
92;SDS011;16232;48.800;9.002;2023-05-10T07:32:09;6.87;;;2.03;;
92;SDS011;16232;48.800;9.002;2023-05-10T07:34:37;1.40;;;1.30;;
92;SDS011;16232;48.800;9.002;2023-05-10T07:37:04;1.80;;;1.70;;
92;SDS011;16232;48.800;9.002;2023-05-10T07:39:33;1.97;;;1.33;;
92;SDS011;16232;48.800;9.002;2023-05-10T07:42:01;2.20;;;1.20;;
92;SDS011;16232;48.800;9.002;2023-05-10T07:44:29;2.20;;;1.33;;
92;SDS011;16232;48.800;9.002;2023-05-10T07:46:58;1.10;;;0.97;;
92;SDS011;16232;48.800;9.002;2023-05-10T07:49:26;2.53;;;1.17;;
92;SDS011;16232;48.800;9.002;2023-05-10T07:51:53;1.80;;;0.90;;
92;SDS011;16232;48.800;9.002;2023-05-10T07:54:21;1.33;;;0.90;;
92;SDS011;16232;48.800;9.002;2023-05-10T07:56:48;0.83;;;0.63;;
92;SDS011;16232;48.800;9.002;2023-05-10T07:59:16;2.60;;;0.90;;
92;SDS011;16232;48.800;9.002;2023-05-10T08:01:44;1.23;;;0.63;;
92;SDS011;16232;48.800;9.002;2023-05-10T08:04:13;0.73;;;0.50;;
92;SDS011;16232;48.800;9.002;2023-05-10T08:06:41;1.03;;;0.50;;
92;SDS011;16232;48.800;9.002;2023-05-10T08:09:08;1.27;;;0.70;;
92;SDS011;16232;48.800;9.002;2023-05-10T08:11:36;0.47;;;0.40;;
92;SDS011;16232;48.800;9.002;2023-05-10T08:14:03;0.80;;;0.40;;
92;SDS011;16232;48.800;9.002;2023-05-10T08:16:31;0.47;;;0.43;;
92;SDS011;16232;48.800;9.002;2023-05-10T08:18:59;1.33;;;0.40;;
92;SDS011;16232;48.800;9.002;2023-05-10T08:21:28;0.47;;;0.40;;
92;SDS011;16232;48.800;9.002;2023-05-10T08:23:56;0.93;;;0.77;;
92;SDS011;16232;48.800;9.002;2023-05-10T08:26:24;0.50;;;0.40;;
92;SDS011;16232;48.800;9.002;2023-05-10T08:28:51;0.40;;;0.40;;
92;SDS011;16232;48.800;9.002;2023-05-10T08:31:19;1.93;;;0.40;;
92;SDS011;16232;48.800;9.002;2023-05-10T08:33:46;1.80;;;0.53;;
92;SDS011;16232;48.800;9.002;2023-05-10T08:36:13;2.13;;;0.40;;
92;SDS011;16232;48.800;9.002;2023-05-10T08:38:46;0.60;;;0.47;;
92;SDS011;16232;48.800;9.002;2023-05-10T08:41:13;0.40;;;0.40;;
92;SDS011;16232;48.800;9.002;2023-05-10T08:43:41;2.57;;;0.37;;
92;SDS011;16232;48.800;9.002;2023-05-10T08:46:11;0.50;;;0.40;;
92;SDS011;16232;48.800;9.002;2023-05-10T08:48:41;1.03;;;0.40;;
92;SDS011;16232;48.800;9.002;2023-05-10T08:51:10;1.03;;;0.30;;
92;SDS011;16232;48.800;9.002;2023-05-10T08:53:39;0.40;;;0.20;;
92;SDS011;16232;48.800;9.002;2023-05-10T08:56:09;1.23;;;0.30;;
92;SDS011;16232;48.800;9.002;2023-05-10T08:58:36;0.20;;;0.20;;
92;SDS011;16232;48.800;9.002;2023-05-10T09:01:04;0.80;;;0.53;;
92;SDS011;16232;48.800;9.002;2023-05-10T09:03:32;1.40;;;0.30;;
92;SDS011;16232;48.800;9.002;2023-05-10T09:05:59;3.23;;;0.37;;
92;SDS011;16232;48.800;9.002;2023-05-10T09:08:27;0.57;;;0.50;;
92;SDS011;16232;48.800;9.002;2023-05-10T09:11:10;0.40;;;0.30;;
92;SDS011;16232;48.800;9.002;2023-05-10T09:13:37;0.47;;;0.37;;
92;SDS011;16232;48.800;9.002;2023-05-10T09:16:06;0.40;;;0.30;;
92;SDS011;16232;48.800;9.002;2023-05-10T09:18:33;0.83;;;0.40;;
92;SDS011;16232;48.800;9.002;2023-05-10T09:21:01;0.83;;;0.33;;
92;SDS011;16232;48.800;9.002;2023-05-10T09:23:29;1.30;;;0.40;;
92;SDS011;16232;48.800;9.002;2023-05-10T09:26:02;0.20;;;0.20;;
92;SDS011;16232;48.800;9.002;2023-05-10T09:28:32;0.87;;;0.50;;
92;SDS011;16232;48.800;9.002;2023-05-10T09:31:00;2.53;;;0.40;;
92;SDS011;16232;48.800;9.002;2023-05-10T09:33:27;1.00;;;0.40;;
92;SDS011;16232;48.800;9.002;2023-05-10T09:35:55;1.20;;;0.30;;
92;SDS011;16232;48.800;9.002;2023-05-10T09:38:44;1.37;;;0.50;;
92;SDS011;16232;48.800;9.002;2023-05-10T09:41:15;1.53;;;0.60;;
92;SDS011;16232;48.800;9.002;2023-05-10T09:43:45;0.83;;;0.30;;
92;SDS011;16232;48.800;9.002;2023-05-10T09:46:13;0.57;;;0.40;;
92;SDS011;16232;48.800;9.002;2023-05-10T09:48:41;0.30;;;0.30;;
92;SDS011;16232;48.800;9.002;2023-05-10T09:51:09;3.03;;;0.40;;
92;SDS011;16232;48.800;9.002;2023-05-10T09:53:36;0.30;;;0.30;;
92;SDS011;16232;48.800;9.002;2023-05-10T09:56:04;0.70;;;0.40;;
92;SDS011;16232;48.800;9.002;2023-05-10T09:58:32;0.33;;;0.30;;
92;SDS011;16232;48.800;9.002;2023-05-10T10:01:04;0.90;;;0.40;;
92;SDS011;16232;48.800;9.002;2023-05-10T10:03:41;3.23;;;0.53;;
92;SDS011;16232;48.800;9.002;2023-05-10T10:06:09;0.83;;;0.33;;
92;SDS011;16232;48.800;9.002;2023-05-10T10:08:37;1.07;;;0.40;;
92;SDS011;16232;48.800;9.002;2023-05-10T10:11:04;1.50;;;0.40;;
92;SDS011;16232;48.800;9.002;2023-05-10T10:13:32;2.67;;;0.57;;
92;SDS011;16232;48.800;9.002;2023-05-10T10:15:59;0.60;;;0.50;;
92;SDS011;16232;48.800;9.002;2023-05-10T10:18:28;0.30;;;0.30;;
92;SDS011;16232;48.800;9.002;2023-05-10T10:20:57;0.60;;;0.40;;
92;SDS011;16232;48.800;9.002;2023-05-10T10:23:25;1.13;;;0.33;;
92;SDS011;16232;48.800;9.002;2023-05-10T10:25:53;0.77;;;0.50;;
92;SDS011;16232;48.800;9.002;2023-05-10T10:28:24;1.93;;;0.30;;
92;SDS011;16232;48.800;9.002;2023-05-10T10:30:54;0.30;;;0.30;;
92;SDS011;16232;48.800;9.002;2023-05-10T10:33:39;0.77;;;0.30;;
92;SDS011;16232;48.800;9.002;2023-05-10T10:36:07;0.30;;;0.30;;
92;SDS011;16232;48.800;9.002;2023-05-10T10:38:36;1.60;;;0.40;;
92;SDS011;16232;48.800;9.002;2023-05-10T10:41:08;0.93;;;0.53;;
92;SDS011;16232;48.800;9.002;2023-05-10T10:43:36;3.47;;;0.40;;
92;SDS011;16232;48.800;9.002;2023-05-10T10:46:10;0.37;;;0.30;;
92;SDS011;16232;48.800;9.002;2023-05-10T10:48:40;1.00;;;0.40;;
92;SDS011;16232;48.800;9.002;2023-05-10T10:51:08;0.57;;;0.30;;
92;SDS011;16232;48.800;9.002;2023-05-10T10:53:36;0.70;;;0.33;;
92;SDS011;16232;48.800;9.002;2023-05-10T10:56:07;0.80;;;0.40;;
92;SDS011;16232;48.800;9.002;2023-05-10T10:58:36;1.13;;;0.30;;
92;SDS011;16232;48.800;9.002;2023-05-10T11:01:13;0.53;;;0.40;;
92;SDS011;16232;48.800;9.002;2023-05-10T11:03:54;1.20;;;0.70;;
92;SDS011;16232;48.800;9.002;2023-05-10T11:06:30;2.60;;;0.47;;
92;SDS011;16232;48.800;9.002;2023-05-10T11:08:58;0.70;;;0.43;;
92;SDS011;16232;48.800;9.002;2023-05-10T11:11:26;1.50;;;0.40;;
92;SDS011;16232;48.800;9.002;2023-05-10T11:13:54;0.30;;;0.30;;
92;SDS011;16232;48.800;9.002;2023-05-10T11:16:29;1.27;;;0.50;;
92;SDS011;16232;48.800;9.002;2023-05-10T11:19:09;1.23;;;0.40;;
92;SDS011;16232;48.800;9.002;2023-05-10T11:21:44;1.30;;;0.50;;
92;SDS011;16232;48.800;9.002;2023-05-10T11:24:12;0.60;;;0.50;;
92;SDS011;16232;48.800;9.002;2023-05-10T11:26:40;1.33;;;0.50;;
92;SDS011;16232;48.800;9.002;2023-05-10T11:29:07;0.90;;;0.40;;
92;SDS011;16232;48.800;9.002;2023-05-10T11:31:35;1.57;;;0.57;;
92;SDS011;16232;48.800;9.002;2023-05-10T11:34:10;1.10;;;0.50;;
92;SDS011;16232;48.800;9.002;2023-05-10T11:36:39;1.80;;;0.40;;
92;SDS011;16232;48.800;9.002;2023-05-10T11:39:07;1.60;;;0.60;;
92;SDS011;16232;48.800;9.002;2023-05-10T11:41:35;1.17;;;0.57;;
92;SDS011;16232;48.800;9.002;2023-05-10T11:44:02;2.20;;;0.60;;
92;SDS011;16232;48.800;9.002;2023-05-10T11:46:29;0.90;;;0.90;;
92;SDS011;16232;48.800;9.002;2023-05-10T11:48:57;1.93;;;0.70;;
92;SDS011;16232;48.800;9.002;2023-05-10T11:51:28;1.67;;;0.63;;
92;SDS011;16232;48.800;9.002;2023-05-10T11:53:56;1.30;;;0.60;;
92;SDS011;16232;48.800;9.002;2023-05-10T11:56:23;1.53;;;0.50;;
92;SDS011;16232;48.800;9.002;2023-05-10T11:58:52;0.93;;;0.60;;
92;SDS011;16232;48.800;9.002;2023-05-10T12:01:20;1.57;;;0.50;;
92;SDS011;16232;48.800;9.002;2023-05-10T12:03:48;1.43;;;0.60;;
92;SDS011;16232;48.800;9.002;2023-05-10T12:06:16;1.07;;;0.40;;
92;SDS011;16232;48.800;9.002;2023-05-10T12:08:45;1.73;;;0.50;;
92;SDS011;16232;48.800;9.002;2023-05-10T12:11:13;2.50;;;0.80;;
92;SDS011;16232;48.800;9.002;2023-05-10T12:13:41;1.53;;;0.70;;
92;SDS011;16232;48.800;9.002;2023-05-10T12:16:15;2.20;;;0.70;;
92;SDS011;16232;48.800;9.002;2023-05-10T12:18:43;1.00;;;0.50;;
92;SDS011;16232;48.800;9.002;2023-05-10T12:21:11;0.60;;;0.60;;
92;SDS011;16232;48.800;9.002;2023-05-10T12:23:38;0.67;;;0.60;;
92;SDS011;16232;48.800;9.002;2023-05-10T12:26:08;2.93;;;0.70;;
92;SDS011;16232;48.800;9.002;2023-05-10T12:28:36;2.50;;;0.63;;
92;SDS011;16232;48.800;9.002;2023-05-10T12:31:05;2.13;;;0.57;;
92;SDS011;16232;48.800;9.002;2023-05-10T12:33:36;1.97;;;0.50;;
92;SDS011;16232;48.800;9.002;2023-05-10T12:36:07;2.30;;;0.63;;
92;SDS011;16232;48.800;9.002;2023-05-10T12:38:35;1.93;;;0.60;;
92;SDS011;16232;48.800;9.002;2023-05-10T12:41:04;1.70;;;0.80;;
92;SDS011;16232;48.800;9.002;2023-05-10T12:43:37;0.77;;;0.50;;
92;SDS011;16232;48.800;9.002;2023-05-10T12:46:05;1.23;;;0.60;;
92;SDS011;16232;48.800;9.002;2023-05-10T12:48:33;1.30;;;0.60;;
92;SDS011;16232;48.800;9.002;2023-05-10T12:51:01;3.07;;;0.63;;
92;SDS011;16232;48.800;9.002;2023-05-10T12:53:29;2.67;;;0.60;;
92;SDS011;16232;48.800;9.002;2023-05-10T12:55:57;1.07;;;0.60;;
92;SDS011;16232;48.800;9.002;2023-05-10T12:58:28;1.63;;;0.43;;
92;SDS011;16232;48.800;9.002;2023-05-10T13:00:57;1.07;;;0.60;;
92;SDS011;16232;48.800;9.002;2023-05-10T13:03:26;1.80;;;0.50;;
92;SDS011;16232;48.800;9.002;2023-05-10T13:05:53;1.13;;;0.70;;
92;SDS011;16232;48.800;9.002;2023-05-10T13:08:21;1.07;;;0.67;;
92;SDS011;16232;48.800;9.002;2023-05-10T13:10:48;1.90;;;0.80;;
92;SDS011;16232;48.800;9.002;2023-05-10T13:13:16;1.00;;;0.63;;
92;SDS011;16232;48.800;9.002;2023-05-10T13:15:44;3.07;;;0.73;;
92;SDS011;16232;48.800;9.002;2023-05-10T13:18:13;1.23;;;0.83;;
92;SDS011;16232;48.800;9.002;2023-05-10T13:20:41;2.00;;;0.83;;
92;SDS011;16232;48.800;9.002;2023-05-10T13:23:11;2.20;;;0.70;;
92;SDS011;16232;48.800;9.002;2023-05-10T13:25:39;1.33;;;0.83;;
92;SDS011;16232;48.800;9.002;2023-05-10T13:28:07;1.03;;;0.40;;
92;SDS011;16232;48.800;9.002;2023-05-10T13:30:35;1.27;;;0.70;;
92;SDS011;16232;48.800;9.002;2023-05-10T13:33:03;4.53;;;0.70;;
92;SDS011;16232;48.800;9.002;2023-05-10T13:35:33;1.93;;;0.60;;
92;SDS011;16232;48.800;9.002;2023-05-10T13:38:12;2.00;;;0.67;;
92;SDS011;16232;48.800;9.002;2023-05-10T13:40:40;0.97;;;0.60;;
92;SDS011;16232;48.800;9.002;2023-05-10T13:43:28;2.30;;;0.70;;
92;SDS011;16232;48.800;9.002;2023-05-10T13:46:00;0.83;;;0.53;;
92;SDS011;16232;48.800;9.002;2023-05-10T13:48:27;1.47;;;0.50;;
92;SDS011;16232;48.800;9.002;2023-05-10T13:50:57;5.40;;;0.70;;
92;SDS011;16232;48.800;9.002;2023-05-10T13:53:24;3.43;;;0.70;;
92;SDS011;16232;48.800;9.002;2023-05-10T13:55:52;2.97;;;0.50;;
92;SDS011;16232;48.800;9.002;2023-05-10T13:58:20;1.70;;;0.40;;
92;SDS011;16232;48.800;9.002;2023-05-10T14:00:48;1.73;;;0.70;;
92;SDS011;16232;48.800;9.002;2023-05-10T14:03:16;2.57;;;0.60;;
92;SDS011;16232;48.800;9.002;2023-05-10T14:05:44;1.13;;;0.53;;
92;SDS011;16232;48.800;9.002;2023-05-10T14:08:14;0.57;;;0.40;;
92;SDS011;16232;48.800;9.002;2023-05-10T14:10:42;1.50;;;0.50;;
92;SDS011;16232;48.800;9.002;2023-05-10T14:13:10;0.70;;;0.40;;
92;SDS011;16232;48.800;9.002;2023-05-10T14:15:38;2.40;;;0.50;;
92;SDS011;16232;48.800;9.002;2023-05-10T14:18:25;1.83;;;0.60;;
92;SDS011;16232;48.800;9.002;2023-05-10T14:21:12;1.37;;;0.50;;
92;SDS011;16232;48.800;9.002;2023-05-10T14:24:01;1.60;;;0.57;;
92;SDS011;16232;48.800;9.002;2023-05-10T14:26:49;2.60;;;0.53;;
92;SDS011;16232;48.800;9.002;2023-05-10T14:29:25;1.23;;;0.50;;
92;SDS011;16232;48.800;9.002;2023-05-10T14:31:55;0.93;;;0.40;;
92;SDS011;16232;48.800;9.002;2023-05-10T14:34:24;0.77;;;0.30;;
92;SDS011;16232;48.800;9.002;2023-05-10T14:36:52;1.20;;;0.60;;
92;SDS011;16232;48.800;9.002;2023-05-10T14:39:21;0.80;;;0.60;;
92;SDS011;16232;48.800;9.002;2023-05-10T14:41:49;0.83;;;0.40;;
92;SDS011;16232;48.800;9.002;2023-05-10T14:44:18;0.80;;;0.50;;
92;SDS011;16232;48.800;9.002;2023-05-10T14:46:52;1.33;;;0.50;;
92;SDS011;16232;48.800;9.002;2023-05-10T14:49:21;1.83;;;0.50;;
92;SDS011;16232;48.800;9.002;2023-05-10T14:51:52;0.80;;;0.50;;
92;SDS011;16232;48.800;9.002;2023-05-10T14:54:20;1.60;;;0.43;;
92;SDS011;16232;48.800;9.002;2023-05-10T14:56:49;0.93;;;0.53;;
92;SDS011;16232;48.800;9.002;2023-05-10T14:59:17;0.70;;;0.40;;
92;SDS011;16232;48.800;9.002;2023-05-10T15:01:45;0.63;;;0.40;;
92;SDS011;16232;48.800;9.002;2023-05-10T15:04:13;2.10;;;0.40;;
92;SDS011;16232;48.800;9.002;2023-05-10T15:06:42;1.07;;;0.50;;
92;SDS011;16232;48.800;9.002;2023-05-10T15:09:10;1.40;;;0.60;;
92;SDS011;16232;48.800;9.002;2023-05-10T15:11:39;2.53;;;0.53;;
92;SDS011;16232;48.800;9.002;2023-05-10T15:14:08;1.90;;;0.43;;
92;SDS011;16232;48.800;9.002;2023-05-10T15:16:36;1.97;;;0.33;;
92;SDS011;16232;48.800;9.002;2023-05-10T15:19:03;0.73;;;0.30;;
92;SDS011;16232;48.800;9.002;2023-05-10T15:21:31;4.50;;;0.50;;
92;SDS011;16232;48.800;9.002;2023-05-10T15:24:03;1.37;;;0.50;;
92;SDS011;16232;48.800;9.002;2023-05-10T15:26:31;1.67;;;0.40;;
92;SDS011;16232;48.800;9.002;2023-05-10T15:28:58;1.57;;;0.60;;
92;SDS011;16232;48.800;9.002;2023-05-10T15:31:27;0.40;;;0.33;;
92;SDS011;16232;48.800;9.002;2023-05-10T15:33:56;1.33;;;0.50;;
92;SDS011;16232;48.800;9.002;2023-05-10T15:36:24;0.60;;;0.50;;
92;SDS011;16232;48.800;9.002;2023-05-10T15:38:52;1.20;;;0.30;;
92;SDS011;16232;48.800;9.002;2023-05-10T15:41:21;1.07;;;0.27;;
92;SDS011;16232;48.800;9.002;2023-05-10T15:43:48;0.50;;;0.13;;
92;SDS011;16232;48.800;9.002;2023-05-10T15:46:16;0.90;;;0.40;;
92;SDS011;16232;48.800;9.002;2023-05-10T15:48:45;0.80;;;0.50;;
92;SDS011;16232;48.800;9.002;2023-05-10T15:51:12;0.70;;;0.33;;